Quick Links (Output Below):   Max & Min Temps   /   Climate Reports   /   Zone Forecasts
River Forecasts   /   Forestry Forecasts   /   Aviation Forecasts   /   Radars   /   Features

Terminal Aerodrome Forecast (Jonesboro)

Pick a Site:
Arkadelphia | El Dorado | Fayetteville | Fort Smith | Harrison | Highfill | Hot Springs | Jonesboro
Little Rock | Monticello | Mountain Home | Pine Bluff | Texarkana

KJBR 281144Z 2812/2912 35010KT 5SM RA BR BKN007 OVC010
     FM281600 01009KT 3SM RA BR OVC006
     FM290000 02008KT 3SM RA BR OVC003=

 Latest METARs (Observations) 
How to Decode METARs
14Z KJBR 281353Z AUTO 35006KT 8SM -RA BKN010 OVC014 08/08 A3023 RMK
         AO2 SLP235 P0007 T00780078
13Z KJBR 281253Z AUTO 35004KT 8SM -RA SCT009 OVC015 08/08 A3021 RMK
         AO2 SLP228 P0008 T00830083
12Z KJBR 281153Z AUTO 32004KT 9SM -RA OVC010 09/09 A3019 RMK AO2
         SLP222 P0011 60102 70259 T00890089 10161 20089 53016
11Z KJBR 281053Z AUTO VRB06KT 10SM -RA OVC010 09/09 A3017 RMK AO2
         SLP214 P0012 T00940094
10Z KJBR 280953Z AUTO 33009KT 9SM -RA OVC009 11/11 A3015 RMK AO2
         SLP209 P0011 T01060106
09Z KJBR 280853Z AUTO 31007KT 6SM RA BR OVC006 12/12 A3014 RMK AO2
         SLP206 P0016 60068 T01220122 58004
08Z KJBR 280753Z AUTO 27003KT 5SM RA BR FEW005 OVC044 13/13 A3015 RMK
         AO2 SLP208 P0025 T01330133
07Z KJBR 280653Z AUTO 00000KT 3SM RA BR FEW014 OVC035 16/16 A3015 RMK
         AO2 SLP208 P0027 T01560156
06Z KJBR 280553Z AUTO 32005KT 3SM +RA BR BKN011 OVC019 16/16 A3017 RMK
         AO2 SLP214 P0022 60122 T01610161 10161 20156 401670144
05Z KJBR 280453Z AUTO 00000KT 4SM RA BR OVC013 16/16 A3016 RMK AO2
         SLP211 P0030 T01610161
***** Today's Observations (Above) *****

Back to Main Page

USA.gov is the U.S. government's official web portal to all federal, state and local government web resources and services.